Time;durP1;ratioP1;P1;durP2;ratioP2;P2;SDS_P1;SDS_P2;PMS_P1;PMS_P2;Temp;Humidity;BMP_temperature;BMP_pressure;BME280_temperature;BME280_humidity;BME280_pressure;Samples;Min_cycle;Max_cycle;Signal;HPM_P1;HPM_P2
2021/09/20 00:02:25;;;;;;;17.48;13.60;;;20.00;54.50;;;;;;5010200;28;20022;-70
2021/09/20 00:04:52;;;;;;;22.45;14.93;;;20.20;53.80;;;;;;5010133;28;20422;-68
2021/09/20 00:07:20;;;;;;;22.85;14.07;;;20.10;52.80;;;;;;5010159;28;20457;-68
2021/09/20 00:09:47;;;;;;;19.45;14.07;;;20.10;53.50;;;;;;5010349;28;20384;-67
2021/09/20 00:12:15;;;;;;;19.98;13.75;;;20.10;53.30;;;;;;5009944;28;20377;-63
2021/09/20 00:14:42;;;;;;;17.55;14.30;;;20.20;52.50;;;;;;5009785;28;20022;-68
2021/09/20 00:17:10;;;;;;;20.55;14.77;;;20.20;53.80;;;;;;5010353;28;20019;-68
2021/09/20 00:19:37;;;;;;;18.17;14.07;;;20.20;53.90;;;;;;5010036;28;20483;-67
2021/09/20 00:22:05;;;;;;;19.80;13.82;;;20.30;53.90;;;;;;5009813;28;20053;-66
2021/09/20 00:24:32;;;;;;;17.95;14.48;;;20.40;53.40;;;;;;5009764;28;20083;-67
2021/09/20 00:27:00;;;;;;;17.30;13.05;;;20.30;53.10;;;;;;5009846;28;20018;-64
2021/09/20 00:29:27;;;;;;;18.88;13.85;;;20.40;53.30;;;;;;5009691;28;20029;-67
2021/09/20 00:31:55;;;;;;;21.52;12.77;;;20.70;51.40;;;;;;5010234;28;20128;-65
2021/09/20 00:34:22;;;;;;;16.23;11.45;;;20.90;50.60;;;;;;5009744;28;20056;-68
2021/09/20 00:36:49;;;;;;;19.50;13.10;;;20.90;51.90;;;;;;5010478;28;20025;-68
2021/09/20 00:39:17;;;;;;;17.00;12.45;;;20.90;52.20;;;;;;5010132;28;20014;-67
2021/09/20 00:41:44;;;;;;;15.23;11.73;;;20.90;52.40;;;;;;5010172;28;20030;-67
2021/09/20 00:44:12;;;;;;;21.13;12.80;;;20.90;52.10;;;;;;4992398;28;20028;-66
2021/09/20 00:46:39;;;;;;;13.50;9.93;;;20.90;52.00;;;;;;5009814;28;20022;-67
2021/09/20 00:49:07;;;;;;;17.00;12.45;;;21.10;49.30;;;;;;5009683;28;20018;-64
2021/09/20 00:51:34;;;;;;;17.33;10.23;;;20.90;52.20;;;;;;5009602;28;20046;-66
2021/09/20 00:54:02;;;;;;;19.50;10.40;;;21.00;51.00;;;;;;5009680;28;20032;-64
2021/09/20 00:56:30;;;;;;;12.20;8.52;;;21.00;51.50;;;;;;5009286;28;20130;-64
2021/09/20 00:58:57;;;;;;;16.65;11.73;;;21.10;49.90;;;;;;5009450;28;20472;-66
2021/09/20 01:01:25;;;;;;;17.30;11.38;;;21.10;51.10;;;;;;5010995;28;20045;-64
2021/09/20 01:03:52;;;;;;;14.30;9.65;;;21.20;51.30;;;;;;5013225;28;20026;-64
2021/09/20 01:06:20;;;;;;;13.98;9.93;;;21.10;51.30;;;;;;5013039;28;20022;-67
2021/09/20 01:08:48;;;;;;;13.63;9.10;;;21.20;51.10;;;;;;5013126;28;20026;-70
2021/09/20 01:11:16;;;;;;;15.23;8.32;;;21.20;50.50;;;;;;5013097;28;20025;-66
2021/09/20 01:13:44;;;;;;;11.02;8.05;;;21.30;50.10;;;;;;5012525;28;20038;-67
2021/09/20 01:16:12;;;;;;;10.93;7.07;;;21.50;50.00;;;;;;4995312;28;20468;-69
2021/09/20 01:18:39;;;;;;;11.18;7.20;;;21.60;47.30;;;;;;4994855;28;20034;-60
2021/09/20 01:21:07;;;;;;;11.45;8.02;;;21.60;49.30;;;;;;5013122;28;20136;-70
2021/09/20 01:23:34;;;;;;;12.60;6.93;;;21.60;49.80;;;;;;5013329;28;20098;-68
2021/09/20 01:26:02;;;;;;;9.43;5.75;;;21.80;48.30;;;;;;5012896;28;20456;-67
2021/09/20 01:28:29;;;;;;;9.32;5.45;;;21.80;48.60;;;;;;4994377;28;20018;-66
2021/09/20 01:30:57;;;;;;;8.07;6.00;;;21.80;47.40;;;;;;5012674;28;20041;-65
2021/09/20 01:33:24;;;;;;;10.20;5.50;;;21.80;48.50;;;;;;5012801;28;20106;-67
2021/09/20 01:35:52;;;;;;;6.65;4.50;;;21.60;49.00;;;;;;5012757;28;20049;-69
2021/09/20 01:38:19;;;;;;;8.95;5.28;;;21.90;47.80;;;;;;5012416;28;20022;-70
2021/09/20 01:40:47;;;;;;;10.15;6.05;;;22.10;47.60;;;;;;5012377;28;20388;-70
2021/09/20 01:43:15;;;;;;;9.80;4.28;;;22.20;47.70;;;;;;5012521;28;20034;-66
2021/09/20 01:45:42;;;;;;;7.78;5.57;;;22.10;47.00;;;;;;5012136;28;20034;-66
2021/09/20 01:48:10;;;;;;;9.05;4.53;;;22.00;48.10;;;;;;5011991;28;20026;-66
2021/09/20 01:50:37;;;;;;;7.65;4.15;;;22.20;47.40;;;;;;5011967;28;20076;-66
2021/09/20 01:53:04;;;;;;;8.30;4.40;;;22.10;46.70;;;;;;5012168;28;20034;-68
2021/09/20 01:55:32;;;;;;;7.43;4.60;;;22.10;47.60;;;;;;5012154;28;20086;-67
2021/09/20 01:57:59;;;;;;;6.82;4.93;;;22.20;46.40;;;;;;5012487;28;20030;-64
2021/09/20 02:00:27;;;;;;;6.55;4.20;;;22.20;47.60;;;;;;5012371;28;20105;-66
2021/09/20 02:02:55;;;;;;;6.28;4.15;;;22.30;45.90;;;;;;5012158;28;20037;-66
2021/09/20 02:05:22;;;;;;;5.72;4.50;;;22.40;47.30;;;;;;5011991;28;20029;-67
2021/09/20 02:07:49;;;;;;;6.15;3.63;;;22.30;47.60;;;;;;5012085;28;20392;-66
2021/09/20 02:10:18;;;;;;;9.15;4.28;;;22.40;47.20;;;;;;5011801;28;20026;-63
2021/09/20 02:12:46;;;;;;;6.85;4.60;;;22.60;45.00;;;;;;5011450;28;20087;-63
2021/09/20 02:15:32;;;;;;;5.60;3.88;;;22.60;47.30;;;;;;5011872;28;20464;-63
2021/09/20 02:17:59;;;;;;;4.85;3.95;;;22.60;45.30;;;;;;5011960;28;20472;-61
2021/09/20 02:20:27;;;;;;;4.63;3.15;;;22.50;47.30;;;;;;5008232;28;20026;-63
2021/09/20 02:22:54;;;;;;;8.75;4.22;;;22.50;47.00;;;;;;5011927;28;20029;-64
2021/09/20 02:25:23;;;;;;;5.05;3.90;;;22.50;46.30;;;;;;5011671;28;20076;-63
2021/09/20 02:27:50;;;;;;;4.75;3.47;;;22.50;46.80;;;;;;5011002;28;20026;-62
2021/09/20 02:30:18;;;;;;;4.90;2.78;;;22.40;46.60;;;;;;5011358;28;20022;-65
2021/09/20 02:32:45;;;;;;;8.50;3.72;;;22.40;45.80;;;;;;5011412;28;20038;-64
2021/09/20 02:35:13;;;;;;;7.80;2.53;;;22.50;46.30;;;;;;5011462;28;20026;-66
2021/09/20 02:37:46;;;;;;;5.20;3.22;;;22.50;46.10;;;;;;5011307;28;20051;-65
2021/09/20 02:40:14;;;;;;;7.78;2.92;;;22.60;45.30;;;;;;5011353;28;20018;-69
2021/09/20 02:42:41;;;;;;;6.82;2.90;;;22.70;45.90;;;;;;5010591;28;20427;-66
2021/09/20 02:45:09;;;;;;;5.63;3.30;;;22.60;43.00;;;;;;4985279;28;20030;-61
2021/09/20 02:47:38;;;;;;;4.13;2.30;;;22.70;44.80;;;;;;5008154;28;20042;-64
2021/09/20 02:50:07;;;;;;;6.05;2.72;;;22.70;44.70;;;;;;5007918;28;20050;-64
2021/09/20 02:53:00;;;;;;;8.35;3.00;;;22.90;43.90;;;;;;5006685;28;20030;-65
2021/09/20 02:55:28;;;;;;;6.03;2.60;;;22.80;43.50;;;;;;5004268;28;20037;-64
2021/09/20 02:57:55;;;;;;;7.57;2.05;;;22.70;45.60;;;;;;4991141;28;20025;-65
2021/09/20 03:00:23;;;;;;;3.78;2.22;;;22.80;44.90;;;;;;5007766;28;20033;-66
2021/09/20 03:02:50;;;;;;;9.18;4.13;;;22.90;44.60;;;;;;5006942;28;20021;-61
2021/09/20 03:05:18;;;;;;;8.00;2.67;;;23.00;44.50;;;;;;5007727;28;20029;-63
2021/09/20 03:07:46;;;;;;;4.68;2.63;;;23.00;44.20;;;;;;5008774;28;20038;-59
2021/09/20 03:10:14;;;;;;;5.60;2.08;;;23.00;43.80;;;;;;5008006;28;20499;-62
2021/09/20 03:12:41;;;;;;;3.83;2.20;;;23.00;44.30;;;;;;5007857;28;20109;-60
2021/09/20 03:15:10;;;;;;;5.13;2.42;;;23.00;43.30;;;;;;5005372;28;20018;-63
2021/09/20 03:17:37;;;;;;;4.30;2.05;;;22.90;44.20;;;;;;4992903;28;20022;-66
2021/09/20 03:20:05;;;;;;;3.67;2.28;;;22.70;44.00;;;;;;5010607;28;20030;-64
2021/09/20 03:22:32;;;;;;;5.18;1.77;;;22.70;45.50;;;;;;5010328;28;20026;-61
2021/09/20 03:25:00;;;;;;;4.22;1.52;;;22.70;44.70;;;;;;5010378;28;20353;-62
2021/09/20 03:27:27;;;;;;;4.10;1.70;;;22.80;43.80;;;;;;5010050;28;20036;-64
2021/09/20 03:29:54;;;;;;;5.40;1.77;;;22.90;44.80;;;;;;5010889;28;20074;-64
2021/09/20 03:32:22;;;;;;;3.60;1.63;;;22.90;43.40;;;;;;5010131;28;20036;-64
2021/09/20 03:34:49;;;;;;;5.68;2.30;;;23.10;42.60;;;;;;5010394;28;20030;-62
2021/09/20 03:37:16;;;;;;;3.55;1.60;;;23.00;43.40;;;;;;5009576;28;20108;-65
2021/09/20 03:39:44;;;;;;;5.20;1.50;;;23.00;43.90;;;;;;5009782;28;20066;-66
2021/09/20 03:42:11;;;;;;;2.55;1.25;;;23.00;43.60;;;;;;5010214;28;20054;-65
2021/09/20 03:44:38;;;;;;;5.38;1.65;;;22.80;43.60;;;;;;5010046;28;20104;-65
2021/09/20 03:47:06;;;;;;;5.45;1.73;;;22.80;44.20;;;;;;5010317;28;20046;-64
2021/09/20 03:49:33;;;;;;;5.97;2.55;;;22.60;43.80;;;;;;5001285;28;20058;-62
2021/09/20 03:52:01;;;;;;;8.63;2.80;;;22.50;44.50;;;;;;5007314;28;20049;-64
2021/09/20 03:54:33;;;;;;;4.88;2.55;;;22.70;43.90;;;;;;5007613;28;20301;-66
2021/09/20 03:57:00;;;;;;;6.55;2.30;;;22.90;43.10;;;;;;5006100;28;20813;-64
2021/09/20 03:59:29;;;;;;;7.57;3.17;;;22.90;43.20;;;;;;5005390;28;20026;-61
2021/09/20 04:01:57;;;;;;;6.28;2.88;;;22.80;41.90;;;;;;5006839;28;20022;-63
2021/09/20 04:04:24;;;;;;;7.07;3.03;;;22.90;42.80;;;;;;5006439;28;20132;-65
2021/09/20 04:06:51;;;;;;;5.28;2.75;;;22.90;42.50;;;;;;5006469;28;20028;-67
2021/09/20 04:09:20;;;;;;;4.38;3.38;;;23.00;42.20;;;;;;5005024;28;20064;-64
2021/09/20 04:11:47;;;;;;;5.82;3.00;;;23.00;41.20;;;;;;5007825;28;20035;-61
2021/09/20 04:14:15;;;;;;;6.07;3.10;;;23.00;42.40;;;;;;5006609;28;20450;-63
2021/09/20 04:16:42;;;;;;;7.80;2.60;;;22.80;43.00;;;;;;4990278;28;20346;-64
2021/09/20 04:19:09;;;;;;;5.85;2.72;;;22.80;41.80;;;;;;5010105;28;20096;-70
2021/09/20 04:21:37;;;;;;;7.03;2.65;;;23.00;42.70;;;;;;5009767;28;20116;-65
2021/09/20 04:24:04;;;;;;;6.72;2.58;;;23.00;42.20;;;;;;5009841;28;20033;-66
2021/09/20 04:26:32;;;;;;;6.65;3.00;;;23.00;42.00;;;;;;5009008;28;20030;-63
2021/09/20 04:28:59;;;;;;;4.70;2.22;;;23.20;40.70;;;;;;5009755;28;20109;-65
2021/09/20 04:31:27;;;;;;;5.57;2.08;;;23.30;40.80;;;;;;5009485;28;20057;-66
2021/09/20 04:33:54;;;;;;;7.88;2.65;;;23.30;39.40;;;;;;5009805;28;20030;-67
2021/09/20 04:36:21;;;;;;;7.25;2.17;;;23.30;40.10;;;;;;5010690;28;20380;-65
2021/09/20 04:38:49;;;;;;;7.25;2.00;;;23.30;41.30;;;;;;5012942;28;20030;-65
2021/09/20 04:41:16;;;;;;;5.90;2.25;;;23.30;41.10;;;;;;5013155;28;20500;-64
2021/09/20 04:43:44;;;;;;;4.05;1.88;;;23.20;40.40;;;;;;5012097;28;20045;-62
2021/09/20 04:46:11;;;;;;;3.40;1.80;;;23.10;41.10;;;;;;5013256;28;20033;-63
2021/09/20 04:48:38;;;;;;;3.00;2.00;;;23.20;42.00;;;;;;5012720;28;20049;-64
2021/09/20 04:51:06;;;;;;;4.20;2.22;;;23.20;41.30;;;;;;5012480;28;20560;-64
2021/09/20 04:53:33;;;;;;;3.17;1.77;;;23.20;40.60;;;;;;5012745;28;20042;-65
2021/09/20 04:56:01;;;;;;;8.07;1.75;;;23.20;40.60;;;;;;5012398;28;20491;-59
2021/09/20 04:58:28;;;;;;;2.78;1.85;;;23.20;41.90;;;;;;5012382;28;20045;-65
2021/09/20 05:00:55;;;;;;;2.28;1.38;;;23.10;41.60;;;;;;5013043;28;20049;-64
2021/09/20 05:03:23;;;;;;;3.88;1.92;;;23.00;42.90;;;;;;4995028;28;20379;-67
2021/09/20 05:05:50;;;;;;;4.63;1.50;;;23.00;42.30;;;;;;5011621;28;20113;-65
2021/09/20 05:08:18;;;;;;;4.78;1.83;;;22.90;42.10;;;;;;4995247;28;20038;-67
2021/09/20 05:10:46;;;;;;;4.72;1.55;;;23.00;42.20;;;;;;5012734;28;20033;-65
2021/09/20 05:13:13;;;;;;;2.80;1.40;;;23.00;42.20;;;;;;4995654;28;20034;-65
2021/09/20 05:15:44;;;;;;;5.15;1.67;;;23.00;41.30;;;;;;5012848;28;20028;-63
2021/09/20 05:18:11;;;;;;;5.75;1.90;;;23.00;42.40;;;;;;5013261;28;20150;-62
2021/09/20 05:20:39;;;;;;;5.82;1.85;;;23.00;40.50;;;;;;5012842;28;20029;-62
2021/09/20 05:23:07;;;;;;;3.70;1.50;;;23.10;40.80;;;;;;5012702;28;20034;-62
2021/09/20 05:25:34;;;;;;;4.15;1.85;;;23.10;41.80;;;;;;4995367;28;20433;-62
2021/09/20 05:28:03;;;;;;;5.70;1.85;;;23.20;42.50;;;;;;5012369;28;20033;-62
2021/09/20 05:30:30;;;;;;;4.57;2.05;;;23.10;43.10;;;;;;5012424;28;20026;-62
2021/09/20 05:32:59;;;;;;;3.38;1.77;;;23.10;42.40;;;;;;5012660;28;20087;-62
2021/09/20 05:35:27;;;;;;;4.47;1.92;;;23.10;41.40;;;;;;5010846;28;20089;-63
2021/09/20 05:37:55;;;;;;;5.25;1.48;;;23.00;43.40;;;;;;5012815;28;20038;-64
2021/09/20 05:40:23;;;;;;;3.08;1.33;;;23.00;42.00;;;;;;5012190;28;20022;-66
2021/09/20 05:42:56;;;;;;;3.40;1.33;;;23.00;42.30;;;;;;5012017;28;20480;-62
2021/09/20 05:45:24;;;;;;;3.75;1.25;;;22.90;41.80;;;;;;5012466;28;20030;-64
2021/09/20 05:47:53;;;;;;;4.80;1.70;;;23.00;43.00;;;;;;5010871;28;20361;-66
2021/09/20 05:50:22;;;;;;;3.13;1.35;;;23.00;42.30;;;;;;5011737;28;20037;-66
2021/09/20 05:52:50;;;;;;;4.95;1.67;;;23.00;43.40;;;;;;5012333;28;20407;-67
2021/09/20 05:55:17;;;;;;;2.85;1.10;;;23.00;42.30;;;;;;5096989;28;20026;-63
2021/09/20 05:57:45;;;;;;;3.88;1.33;;;23.00;42.80;;;;;;5012028;28;20025;-65
2021/09/20 06:00:13;;;;;;;4.88;2.00;;;23.00;42.50;;;;;;5011926;28;20026;-68
2021/09/20 06:02:41;;;;;;;4.13;1.20;;;23.00;41.40;;;;;;5011938;28;20034;-69
2021/09/20 06:05:12;;;;;;;2.75;1.67;;;23.00;43.30;;;;;;5012287;28;20358;-66
2021/09/20 06:07:40;;;;;;;6.13;1.45;;;22.90;42.80;;;;;;5012279;28;20067;-66
2021/09/20 06:10:09;;;;;;;2.75;1.33;;;22.90;43.40;;;;;;5012193;28;20026;-67
2021/09/20 06:12:36;;;;;;;4.57;1.33;;;22.80;42.10;;;;;;5011639;28;20030;-65
2021/09/20 06:15:06;;;;;;;4.03;1.48;;;22.80;41.60;;;;;;4994577;28;20074;-69
2021/09/20 06:17:33;;;;;;;3.83;1.30;;;22.80;43.70;;;;;;5012046;28;20018;-65
2021/09/20 06:20:01;;;;;;;3.97;1.67;;;22.70;43.60;;;;;;4994446;28;20480;-67
2021/09/20 06:22:29;;;;;;;4.85;1.60;;;22.60;44.00;;;;;;5011719;28;20022;-66
2021/09/20 06:24:58;;;;;;;3.92;1.30;;;22.70;43.20;;;;;;5012013;28;20108;-68
2021/09/20 06:27:27;;;;;;;2.72;1.05;;;22.70;44.50;;;;;;5011840;28;20419;-67
2021/09/20 06:29:55;;;;;;;4.75;1.20;;;22.60;44.80;;;;;;5011681;28;20029;-67
2021/09/20 06:32:22;;;;;;;2.42;1.30;;;22.50;43.10;;;;;;5011689;28;20436;-67
2021/09/20 06:34:50;;;;;;;2.45;1.33;;;22.60;43.20;;;;;;5011835;28;20018;-63
2021/09/20 06:37:17;;;;;;;4.25;1.77;;;22.60;44.00;;;;;;4994399;28;20125;-66
2021/09/20 06:39:45;;;;;;;1.80;1.08;;;22.40;45.00;;;;;;5011207;28;20045;-67
2021/09/20 06:42:13;;;;;;;3.53;1.55;;;22.40;44.10;;;;;;5011474;28;20022;-60
2021/09/20 06:44:40;;;;;;;4.15;1.10;;;22.40;44.80;;;;;;5011602;28;20026;-69
2021/09/20 06:47:09;;;;;;;3.65;1.40;;;22.40;43.80;;;;;;5011776;28;20038;-65
2021/09/20 06:49:36;;;;;;;3.67;1.20;;;22.50;43.30;;;;;;5011224;28;20090;-65
2021/09/20 06:52:04;;;;;;;5.05;1.30;;;22.40;43.90;;;;;;5011297;28;20034;-67
2021/09/20 06:54:31;;;;;;;2.67;1.17;;;22.40;44.40;;;;;;5011112;28;20025;-67
2021/09/20 06:56:59;;;;;;;5.50;0.85;;;22.40;44.20;;;;;;5010966;28;20029;-66
2021/09/20 06:59:26;;;;;;;9.95;1.23;;;22.40;44.30;;;;;;5011081;28;20032;-66
2021/09/20 07:01:53;;;;;;;2.45;1.13;;;22.40;44.60;;;;;;5011207;28;20030;-63
2021/09/20 07:04:21;;;;;;;2.97;1.35;;;22.30;44.80;;;;;;4993050;28;20383;-66
2021/09/20 07:06:48;;;;;;;3.05;1.45;;;22.20;44.40;;;;;;5010783;28;20488;-68
2021/09/20 07:09:16;;;;;;;4.85;1.30;;;22.10;45.70;;;;;;5010771;28;20038;-65
2021/09/20 07:11:43;;;;;;;3.90;1.17;;;22.10;44.60;;;;;;5010900;28;20379;-66
2021/09/20 07:14:11;;;;;;;5.35;1.63;;;22.10;46.00;;;;;;5011085;28;20026;-68
2021/09/20 07:16:39;;;;;;;5.30;1.70;;;22.00;44.60;;;;;;5007388;28;20450;-65
2021/09/20 07:19:06;;;;;;;5.15;1.27;;;22.00;44.90;;;;;;5010752;28;20306;-66
2021/09/20 07:21:34;;;;;;;3.15;1.00;;;22.00;45.40;;;;;;5009563;28;20054;-69
2021/09/20 07:24:01;;;;;;;4.20;1.38;;;22.00;44.90;;;;;;5010395;28;20061;-72
2021/09/20 07:26:30;;;;;;;3.47;1.13;;;21.90;44.40;;;;;;5011180;28;20014;-69
2021/09/20 07:28:59;;;;;;;3.38;1.40;;;21.90;46.50;;;;;;5010954;28;20109;-71
2021/09/20 07:31:26;;;;;;;4.00;1.40;;;21.90;46.00;;;;;;5011265;28;20026;-63
2021/09/20 07:33:55;;;;;;;3.55;1.30;;;21.80;45.60;;;;;;5011375;28;20033;-69
2021/09/20 07:36:22;;;;;;;4.82;1.30;;;21.90;44.30;;;;;;5010856;28;20649;-63
2021/09/20 07:38:49;;;;;;;2.67;1.23;;;21.80;46.20;;;;;;5000017;28;20018;-65
2021/09/20 07:41:17;;;;;;;3.00;1.10;;;21.80;44.90;;;;;;5007333;28;20029;-60
2021/09/20 07:43:45;;;;;;;5.10;1.58;;;21.80;46.50;;;;;;5008155;28;20029;-71
2021/09/20 07:46:19;;;;;;;5.78;1.35;;;21.80;45.20;;;;;;5007933;28;20030;-68
2021/09/20 07:48:47;;;;;;;4.15;1.25;;;21.70;46.50;;;;;;5005969;28;20148;-70
2021/09/20 07:51:14;;;;;;;3.33;1.00;;;21.70;44.90;;;;;;5007959;28;20042;-70
2021/09/20 07:53:42;;;;;;;2.55;1.23;;;21.70;46.60;;;;;;5007366;28;20087;-62
2021/09/20 07:56:10;;;;;;;4.78;1.15;;;21.70;45.90;;;;;;4989273;28;20494;-71
2021/09/20 07:58:40;;;;;;;3.72;1.35;;;21.60;45.90;;;;;;5004837;28;20692;-59
2021/09/20 08:01:08;;;;;;;2.97;0.95;;;21.60;47.10;;;;;;4990686;28;20068;-66
2021/09/20 08:03:35;;;;;;;6.15;1.30;;;21.60;45.40;;;;;;5006988;28;20377;-70
2021/09/20 08:06:03;;;;;;;2.40;1.58;;;21.60;47.50;;;;;;5007658;28;20373;-65
2021/09/20 08:08:30;;;;;;;3.35;1.13;;;21.60;44.50;;;;;;5004776;28;20083;-67
2021/09/20 08:10:57;;;;;;;3.05;1.00;;;21.60;46.60;;;;;;5006689;28;20022;-71
2021/09/20 08:13:25;;;;;;;4.60;1.13;;;21.60;47.50;;;;;;5006685;28;20038;-65
2021/09/20 08:15:54;;;;;;;5.70;1.63;;;21.60;46.10;;;;;;5006857;28;20098;-66
2021/09/20 08:18:22;;;;;;;3.85;1.30;;;21.60;47.10;;;;;;5003656;28;20022;-66
2021/09/20 08:20:49;;;;;;;2.65;1.48;;;21.50;47.40;;;;;;5003611;28;20064;-65
2021/09/20 08:23:17;;;;;;;4.75;1.20;;;21.50;47.20;;;;;;5009441;28;20033;-70
2021/09/20 08:25:44;;;;;;;2.70;1.10;;;21.50;47.40;;;;;;5008098;28;20435;-68
2021/09/20 08:28:15;;;;;;;2.22;1.17;;;21.50;47.90;;;;;;5007274;28;20026;-67
2021/09/20 08:30:43;;;;;;;3.70;1.10;;;21.40;48.00;;;;;;5003352;28;20071;-68
2021/09/20 08:33:11;;;;;;;3.67;0.90;;;21.40;48.20;;;;;;5008135;28;20120;-67
2021/09/20 08:35:38;;;;;;;4.30;1.50;;;21.40;48.60;;;;;;5007382;28;20468;-69
2021/09/20 08:38:06;;;;;;;3.97;1.30;;;21.30;48.60;;;;;;5006141;28;20033;-64
2021/09/20 08:40:34;;;;;;;3.25;1.17;;;21.30;48.90;;;;;;5003194;28;20049;-73
2021/09/20 08:43:02;;;;;;;2.97;1.20;;;21.20;49.00;;;;;;5007970;28;20553;-67
2021/09/20 08:45:30;;;;;;;3.38;1.33;;;21.10;48.90;;;;;;5006529;28;20502;-67
2021/09/20 08:48:00;;;;;;;4.32;1.50;;;21.10;49.40;;;;;;5004348;28;20026;-61
2021/09/20 08:50:37;;;;;;;1.95;0.80;;;21.00;49.40;;;;;;4999889;28;20046;-67
2021/09/20 08:53:14;;;;;;;4.38;1.02;;;21.00;49.80;;;;;;5008228;28;20063;-67
2021/09/20 08:55:42;;;;;;;3.95;1.15;;;20.90;49.80;;;;;;5007376;28;20048;-71
2021/09/20 08:58:09;;;;;;;6.45;1.30;;;20.90;50.20;;;;;;5006929;28;20050;-70
2021/09/20 09:00:40;;;;;;;6.43;1.08;;;20.80;50.20;;;;;;5003523;28;20018;-64
2021/09/20 09:03:08;;;;;;;10.68;1.30;;;20.80;50.20;;;;;;5006776;28;20105;-66
2021/09/20 09:05:35;;;;;;;3.88;1.50;;;20.70;50.50;;;;;;4987438;28;20030;-68
2021/09/20 09:08:07;;;;;;;2.95;1.00;;;20.70;50.60;;;;;;5005390;28;20064;-65
2021/09/20 09:10:37;;;;;;;2.75;0.98;;;20.60;50.80;;;;;;5002645;28;20148;-69
2021/09/20 09:13:20;;;;;;;5.32;1.10;;;20.50;50.80;;;;;;5003922;28;20034;-69
2021/09/20 09:15:48;;;;;;;3.20;1.10;;;20.50;51.70;;;;;;4968398;28;20034;-72
2021/09/20 09:18:16;;;;;;;3.00;0.93;;;20.40;51.10;;;;;;5006111;28;20025;-71
2021/09/20 09:20:43;;;;;;;2.15;0.88;;;20.30;51.30;;;;;;5003927;28;20029;-64
2021/09/20 09:23:15;;;;;;;2.30;1.10;;;20.20;51.40;;;;;;5008631;28;20040;-66
2021/09/20 09:25:49;;;;;;;5.15;1.30;;;20.10;51.60;;;;;;5010126;28;20022;-66
2021/09/20 09:28:23;;;;;;;4.47;1.23;;;20.10;51.80;;;;;;5007763;28;20452;-70
2021/09/20 09:30:54;;;;;;;4.65;1.00;;;20.00;52.30;;;;;;4991347;28;20379;-66
2021/09/20 09:33:34;;;;;;;2.65;0.80;;;20.00;52.40;;;;;;5007655;28;20118;-69
2021/09/20 09:36:02;;;;;;;2.15;0.98;;;19.90;52.70;;;;;;5010401;28;20029;-66
2021/09/20 09:38:30;;;;;;;6.05;0.80;;;19.80;52.40;;;;;;5007375;28;20049;-63
2021/09/20 09:41:03;;;;;;;4.18;1.15;;;19.80;52.80;;;;;;5009096;28;20071;-63
2021/09/20 09:43:35;;;;;;;2.40;0.90;;;19.80;52.70;;;;;;5009536;28;20037;-62
2021/09/20 09:46:18;;;;;;;2.30;0.90;;;19.70;52.80;;;;;;5010414;28;20053;-72
2021/09/20 09:48:46;;;;;;;1.13;0.73;;;19.70;52.80;;;;;;5006174;28;20034;-61
2021/09/20 09:51:14;;;;;;;2.03;0.90;;;19.70;53.10;;;;;;5009925;28;20046;-65
2021/09/20 09:53:44;;;;;;;2.15;0.90;;;19.60;53.00;;;;;;5009549;28;20034;-65
2021/09/20 09:56:19;;;;;;;4.28;1.10;;;19.50;53.30;;;;;;5009444;28;20022;-65
2021/09/20 09:58:53;;;;;;;2.33;0.90;;;19.50;53.40;;;;;;5004340;28;20034;-67
2021/09/20 10:01:23;;;;;;;1.85;1.13;;;19.50;53.50;;;;;;5008958;28;20071;-64
2021/09/20 10:04:09;;;;;;;2.05;1.17;;;19.40;53.50;;;;;;4991739;28;20026;-67
2021/09/20 10:06:42;;;;;;;2.05;0.82;;;19.40;53.70;;;;;;5008045;28;20041;-62
2021/09/20 10:09:15;;;;;;;3.95;1.25;;;19.40;53.50;;;;;;5004445;28;20032;-64
2021/09/20 10:11:48;;;;;;;6.32;1.20;;;19.40;53.90;;;;;;4991581;28;20484;-67
2021/09/20 10:14:19;;;;;;;;;;;19.40;54.10;;;;;;4991805;28;20050;-68
2021/09/20 10:16:51;;;;;;;6.05;0.98;;;19.30;54.10;;;;;;5008508;28;19958;-66
2021/09/20 10:19:19;;;;;;;3.55;0.82;;;19.30;53.90;;;;;;5005208;28;20021;-60
2021/09/20 10:21:47;;;;;;;2.22;0.77;;;19.30;53.90;;;;;;5007181;28;20026;-59
2021/09/20 10:24:18;;;;;;;2.13;0.90;;;19.20;53.90;;;;;;5008692;28;20476;-67
2021/09/20 10:26:46;;;;;;;2.40;0.93;;;19.20;54.10;;;;;;5009435;28;20030;-65
2021/09/20 10:29:18;;;;;;;1.17;0.80;;;19.20;54.10;;;;;;5005176;28;20113;-71
2021/09/20 10:31:48;;;;;;;;;;;19.10;54.30;;;;;;4990491;28;20022;-61
2021/09/20 10:34:21;;;;;;;2.45;1.10;;;19.10;54.40;;;;;;5009251;28;20388;-62
2021/09/20 10:36:49;;;;;;;1.90;0.70;;;19.10;54.40;;;;;;5009562;28;20026;-68
2021/09/20 10:40:07;;;;;;;3.55;0.82;;;19.10;54.30;;;;;;5004778;28;20406;-63
2021/09/20 10:42:37;;;;;;;3.13;0.85;;;19.10;54.00;;;;;;5008117;28;20125;-63
2021/09/20 10:45:08;;;;;;;1.40;0.63;;;19.00;54.10;;;;;;5009514;28;20051;-59
2021/09/20 10:47:48;;;;;;;1.33;0.60;;;19.00;54.10;;;;;;5009453;28;20030;-63
2021/09/20 10:50:36;;;;;;;3.75;1.13;;;19.00;54.30;;;;;;5011841;28;20049;-70
2021/09/20 10:53:33;;;;;;;2.15;0.88;;;19.00;54.40;;;;;;5011858;28;20045;-63
2021/09/20 10:56:04;;;;;;;1.38;0.70;;;19.00;54.50;;;;;;5012073;28;20030;-69
2021/09/20 10:58:36;;;;;;;1.75;0.90;;;18.90;54.40;;;;;;5012245;28;20484;-74
2021/09/20 11:01:12;;;;;;;2.20;0.80;;;18.90;54.50;;;;;;5012630;28;20079;-70
2021/09/20 11:03:54;;;;;;;2.25;1.10;;;18.90;55.20;;;;;;5006860;28;20022;-66
2021/09/20 11:06:33;;;;;;;0.83;0.70;;;18.90;54.60;;;;;;5006948;28;20044;-64
2021/09/20 11:09:03;;;;;;;2.65;0.85;;;18.80;54.60;;;;;;5007633;28;20121;-67
2021/09/20 11:14:19;;;;;;;3.13;1.20;;;18.80;54.70;;;;;;5005364;28;20061;-61
2021/09/20 11:16:49;;;;;;;1.38;0.80;;;18.80;54.20;;;;;;5008221;28;20022;-66
2021/09/20 11:19:28;;;;;;;2.05;1.10;;;18.80;54.30;;;;;;5009943;28;20030;-68
2021/09/20 11:22:23;;;;;;;3.05;0.90;;;18.80;54.10;;;;;;5009004;28;20022;-66
2021/09/20 11:25:02;;;;;;;2.42;1.23;;;18.70;54.00;;;;;;5001033;28;20038;-65
2021/09/20 11:27:42;;;;;;;3.13;0.85;;;18.70;54.10;;;;;;5008657;28;20018;-66
2021/09/20 11:30:25;;;;;;;1.15;0.60;;;18.70;54.10;;;;;;5006689;28;20541;-64
2021/09/20 11:33:07;;;;;;;3.55;0.88;;;18.70;54.20;;;;;;5008142;28;20415;-71
2021/09/20 11:35:35;;;;;;;3.47;0.98;;;18.60;54.20;;;;;;5004031;28;20022;-67
2021/09/20 11:38:11;;;;;;;6.30;1.00;;;18.60;54.20;;;;;;5007205;28;20445;-56
2021/09/20 11:40:44;;;;;;;1.67;0.80;;;18.60;54.50;;;;;;5008748;28;20054;-63
2021/09/20 11:43:12;;;;;;;2.38;0.90;;;18.60;54.60;;;;;;4989064;28;20037;-66
2021/09/20 11:45:39;;;;;;;2.47;0.70;;;18.50;54.50;;;;;;5002593;28;20038;-62
2021/09/20 11:48:19;;;;;;;2.17;0.95;;;18.50;54.40;;;;;;5008326;28;20030;-69
2021/09/20 11:50:47;;;;;;;1.63;0.80;;;18.50;55.10;;;;;;4989155;28;20054;-62
2021/09/20 11:53:20;;;;;;;2.38;0.85;;;18.50;54.50;;;;;;5008614;28;20115;-66
2021/09/20 11:55:50;;;;;;;1.83;0.70;;;18.40;54.50;;;;;;5005769;28;20083;-65
2021/09/20 11:58:20;;;;;;;3.17;0.80;;;18.40;54.50;;;;;;5007893;28;20117;-64
2021/09/20 12:00:50;;;;;;;1.27;0.70;;;18.40;54.20;;;;;;5008070;28;20026;-62
2021/09/20 12:03:25;;;;;;;2.15;1.25;;;18.40;54.20;;;;;;5008113;28;20468;-61
2021/09/20 12:05:53;;;;;;;1.75;0.52;;;18.40;54.30;;;;;;5003366;28;20026;-63
2021/09/20 12:08:27;;;;;;;2.95;1.00;;;18.40;54.30;;;;;;4989360;28;20480;-65
2021/09/20 12:11:00;;;;;;;1.92;0.80;;;18.40;54.40;;;;;;5009544;28;20030;-65
2021/09/20 12:13:31;;;;;;;1.75;0.82;;;18.40;54.40;;;;;;4997100;28;20140;-72
2021/09/20 12:16:07;;;;;;;1.50;0.90;;;18.40;54.40;;;;;;4995011;28;20385;-75
2021/09/20 12:18:35;;;;;;;1.65;0.80;;;18.30;54.30;;;;;;4996420;28;20034;-75
2021/09/20 12:21:08;;;;;;;2.35;1.17;;;18.30;54.40;;;;;;4995056;28;20022;-72
2021/09/20 12:23:41;;;;;;;2.03;0.93;;;18.30;54.40;;;;;;4977586;28;20381;-72
2021/09/20 12:26:09;;;;;;;4.53;0.82;;;18.20;54.30;;;;;;4996092;28;20138;-71
2021/09/20 12:29:01;;;;;;;1.90;0.82;;;18.20;54.30;;;;;;4997695;28;20111;-68
2021/09/20 12:31:38;;;;;;;1.30;0.73;;;18.30;54.40;;;;;;4998413;28;20099;-70
2021/09/20 12:34:12;;;;;;;2.58;1.42;;;18.30;54.40;;;;;;5000345;28;20215;-69
2021/09/20 12:36:44;;;;;;;1.95;0.73;;;18.20;54.40;;;;;;4997955;28;20015;-75
2021/09/20 12:39:28;;;;;;;2.00;0.70;;;18.20;54.60;;;;;;4998059;28;20046;-66
2021/09/20 12:42:08;;;;;;;1.83;0.82;;;18.20;54.50;;;;;;4998152;28;20046;-70
2021/09/20 12:44:38;;;;;;;3.13;0.60;;;18.20;54.70;;;;;;4997033;28;20476;-71
2021/09/20 12:47:16;;;;;;;3.45;1.05;;;18.10;54.70;;;;;;4998188;28;20052;-75
2021/09/20 12:49:57;;;;;;;4.43;0.90;;;18.10;54.70;;;;;;4996808;28;20050;-71
2021/09/20 12:52:30;;;;;;;3.00;0.70;;;18.10;54.70;;;;;;5082004;28;20034;-73
2021/09/20 12:54:58;;;;;;;1.67;0.90;;;18.10;54.70;;;;;;4997754;28;20090;-74
2021/09/20 12:57:29;;;;;;;3.33;0.90;;;18.10;54.80;;;;;;4999705;28;20441;-76
2021/09/20 13:00:13;;;;;;;1.50;0.95;;;18.10;54.80;;;;;;5002271;28;20121;-73
2021/09/20 13:02:42;;;;;;;1.38;0.70;;;18.10;54.70;;;;;;5000330;28;20378;-73